sensor_id;sensor_type;location;lat;lon;timestamp;P1;durP1;ratioP1;P2;durP2;ratioP2
82304;SDS011;71914;47.382;8.168;2024-02-16T00:01:17;7.63;;;5.40;;
82304;SDS011;71914;47.382;8.168;2024-02-16T00:03:44;7.53;;;4.57;;
82304;SDS011;71914;47.382;8.168;2024-02-16T00:08:36;6.93;;;4.63;;
82304;SDS011;71914;47.382;8.168;2024-02-16T00:15:54;7.78;;;4.13;;
82304;SDS011;71914;47.382;8.168;2024-02-16T00:18:20;6.65;;;3.97;;
82304;SDS011;71914;47.382;8.168;2024-02-16T00:20:47;6.00;;;3.83;;
82304;SDS011;71914;47.382;8.168;2024-02-16T00:23:12;6.30;;;3.78;;
82304;SDS011;71914;47.382;8.168;2024-02-16T00:25:38;6.20;;;4.03;;
82304;SDS011;71914;47.382;8.168;2024-02-16T00:28:05;8.80;;;5.22;;
82304;SDS011;71914;47.382;8.168;2024-02-16T00:30:31;7.85;;;4.88;;
82304;SDS011;71914;47.382;8.168;2024-02-16T00:32:56;7.15;;;4.88;;
82304;SDS011;71914;47.382;8.168;2024-02-16T00:35:22;8.27;;;5.07;;
82304;SDS011;71914;47.382;8.168;2024-02-16T00:37:49;6.80;;;4.90;;
82304;SDS011;71914;47.382;8.168;2024-02-16T00:40:15;5.72;;;4.07;;
82304;SDS011;71914;47.382;8.168;2024-02-16T00:42:41;9.90;;;5.35;;
82304;SDS011;71914;47.382;8.168;2024-02-16T00:45:07;8.88;;;5.95;;
82304;SDS011;71914;47.382;8.168;2024-02-16T00:47:33;9.75;;;6.55;;
82304;SDS011;71914;47.382;8.168;2024-02-16T00:49:59;7.47;;;5.25;;
82304;SDS011;71914;47.382;8.168;2024-02-16T00:52:25;6.32;;;4.47;;
82304;SDS011;71914;47.382;8.168;2024-02-16T00:54:52;8.35;;;6.05;;
82304;SDS011;71914;47.382;8.168;2024-02-16T00:57:17;6.13;;;3.92;;
82304;SDS011;71914;47.382;8.168;2024-02-16T00:59:43;7.05;;;4.55;;
82304;SDS011;71914;47.382;8.168;2024-02-16T01:02:09;5.35;;;4.15;;
82304;SDS011;71914;47.382;8.168;2024-02-16T01:04:36;6.15;;;4.20;;
82304;SDS011;71914;47.382;8.168;2024-02-16T01:07:02;6.45;;;4.63;;
82304;SDS011;71914;47.382;8.168;2024-02-16T01:09:28;7.78;;;4.65;;
82304;SDS011;71914;47.382;8.168;2024-02-16T01:11:55;7.35;;;4.38;;
82304;SDS011;71914;47.382;8.168;2024-02-16T01:16:46;7.43;;;4.60;;
82304;SDS011;71914;47.382;8.168;2024-02-16T01:19:11;7.95;;;4.53;;
82304;SDS011;71914;47.382;8.168;2024-02-16T01:21:38;7.45;;;4.50;;
82304;SDS011;71914;47.382;8.168;2024-02-16T01:24:03;6.93;;;4.07;;
82304;SDS011;71914;47.382;8.168;2024-02-16T01:26:30;7.05;;;4.70;;
82304;SDS011;71914;47.382;8.168;2024-02-16T01:28:57;9.85;;;5.25;;
82304;SDS011;71914;47.382;8.168;2024-02-16T01:31:23;6.38;;;4.80;;
82304;SDS011;71914;47.382;8.168;2024-02-16T01:33:49;11.68;;;5.47;;
82304;SDS011;71914;47.382;8.168;2024-02-16T01:36:14;8.02;;;4.53;;
82304;SDS011;71914;47.382;8.168;2024-02-16T01:38:40;7.55;;;5.43;;
82304;SDS011;71914;47.382;8.168;2024-02-16T01:41:06;7.15;;;4.85;;
82304;SDS011;71914;47.382;8.168;2024-02-16T01:43:34;7.22;;;4.25;;
82304;SDS011;71914;47.382;8.168;2024-02-16T01:46:00;8.48;;;4.30;;
82304;SDS011;71914;47.382;8.168;2024-02-16T01:48:26;7.82;;;4.60;;
82304;SDS011;71914;47.382;8.168;2024-02-16T01:50:52;6.82;;;4.25;;
82304;SDS011;71914;47.382;8.168;2024-02-16T01:53:19;8.07;;;5.00;;
82304;SDS011;71914;47.382;8.168;2024-02-16T01:58:11;7.13;;;4.18;;
82304;SDS011;71914;47.382;8.168;2024-02-16T02:00:37;7.45;;;4.70;;
82304;SDS011;71914;47.382;8.168;2024-02-16T02:03:04;11.93;;;6.78;;
82304;SDS011;71914;47.382;8.168;2024-02-16T02:05:31;10.55;;;5.72;;
82304;SDS011;71914;47.382;8.168;2024-02-16T02:07:57;7.88;;;5.30;;
82304;SDS011;71914;47.382;8.168;2024-02-16T02:10:23;8.70;;;5.03;;
82304;SDS011;71914;47.382;8.168;2024-02-16T02:12:49;10.02;;;5.40;;
82304;SDS011;71914;47.382;8.168;2024-02-16T02:15:14;7.88;;;4.45;;
82304;SDS011;71914;47.382;8.168;2024-02-16T02:17:40;8.45;;;5.15;;
82304;SDS011;71914;47.382;8.168;2024-02-16T02:20:08;9.02;;;5.85;;
82304;SDS011;71914;47.382;8.168;2024-02-16T02:22:37;8.52;;;5.55;;
82304;SDS011;71914;47.382;8.168;2024-02-16T02:25:03;9.48;;;5.55;;
82304;SDS011;71914;47.382;8.168;2024-02-16T02:32:21;6.03;;;4.20;;
82304;SDS011;71914;47.382;8.168;2024-02-16T02:34:46;7.35;;;5.07;;
82304;SDS011;71914;47.382;8.168;2024-02-16T02:37:12;8.23;;;4.43;;
82304;SDS011;71914;47.382;8.168;2024-02-16T02:39:39;6.43;;;4.40;;
82304;SDS011;71914;47.382;8.168;2024-02-16T02:42:05;8.40;;;4.25;;
82304;SDS011;71914;47.382;8.168;2024-02-16T02:44:32;6.97;;;4.25;;
82304;SDS011;71914;47.382;8.168;2024-02-16T02:46:58;6.63;;;4.50;;
82304;SDS011;71914;47.382;8.168;2024-02-16T02:49:23;6.55;;;4.22;;
82304;SDS011;71914;47.382;8.168;2024-02-16T02:51:49;5.53;;;4.45;;
82304;SDS011;71914;47.382;8.168;2024-02-16T02:54:15;8.23;;;5.15;;
82304;SDS011;71914;47.382;8.168;2024-02-16T02:56:42;9.98;;;5.25;;
82304;SDS011;71914;47.382;8.168;2024-02-16T02:59:08;6.30;;;4.25;;
82304;SDS011;71914;47.382;8.168;2024-02-16T03:01:35;7.75;;;4.10;;
82304;SDS011;71914;47.382;8.168;2024-02-16T03:04:02;7.95;;;4.28;;
82304;SDS011;71914;47.382;8.168;2024-02-16T03:06:27;7.53;;;4.45;;
82304;SDS011;71914;47.382;8.168;2024-02-16T03:08:53;5.25;;;3.75;;
82304;SDS011;71914;47.382;8.168;2024-02-16T03:11:19;7.55;;;5.30;;
82304;SDS011;71914;47.382;8.168;2024-02-16T03:13:46;6.75;;;4.82;;
82304;SDS011;71914;47.382;8.168;2024-02-16T03:16:13;6.35;;;4.90;;
82304;SDS011;71914;47.382;8.168;2024-02-16T03:18:39;6.47;;;4.10;;
82304;SDS011;71914;47.382;8.168;2024-02-16T03:21:04;10.52;;;5.47;;
82304;SDS011;71914;47.382;8.168;2024-02-16T03:23:30;9.85;;;5.18;;
82304;SDS011;71914;47.382;8.168;2024-02-16T03:25:56;6.53;;;4.63;;
82304;SDS011;71914;47.382;8.168;2024-02-16T03:28:21;8.43;;;5.65;;
82304;SDS011;71914;47.382;8.168;2024-02-16T03:30:48;7.90;;;4.90;;
82304;SDS011;71914;47.382;8.168;2024-02-16T03:33:14;10.52;;;6.85;;
82304;SDS011;71914;47.382;8.168;2024-02-16T03:35:40;8.02;;;5.30;;
82304;SDS011;71914;47.382;8.168;2024-02-16T03:38:05;11.10;;;6.30;;
82304;SDS011;71914;47.382;8.168;2024-02-16T03:40:31;10.35;;;5.88;;
82304;SDS011;71914;47.382;8.168;2024-02-16T03:42:57;8.68;;;5.32;;
82304;SDS011;71914;47.382;8.168;2024-02-16T03:45:23;6.00;;;4.93;;
82304;SDS011;71914;47.382;8.168;2024-02-16T03:47:51;8.32;;;5.35;;
82304;SDS011;71914;47.382;8.168;2024-02-16T03:50:20;9.85;;;5.75;;
82304;SDS011;71914;47.382;8.168;2024-02-16T03:52:46;7.68;;;5.13;;
82304;SDS011;71914;47.382;8.168;2024-02-16T03:55:11;8.85;;;5.43;;
82304;SDS011;71914;47.382;8.168;2024-02-16T03:57:37;9.90;;;5.68;;
82304;SDS011;71914;47.382;8.168;2024-02-16T04:00:03;9.40;;;5.60;;
82304;SDS011;71914;47.382;8.168;2024-02-16T04:02:31;7.07;;;4.82;;
82304;SDS011;71914;47.382;8.168;2024-02-16T04:04:58;8.60;;;5.80;;
82304;SDS011;71914;47.382;8.168;2024-02-16T04:09:49;7.38;;;5.03;;
82304;SDS011;71914;47.382;8.168;2024-02-16T04:12:14;12.60;;;6.00;;
82304;SDS011;71914;47.382;8.168;2024-02-16T04:14:40;9.52;;;5.43;;
82304;SDS011;71914;47.382;8.168;2024-02-16T04:17:07;9.38;;;5.47;;
82304;SDS011;71914;47.382;8.168;2024-02-16T04:19:32;7.90;;;5.32;;
82304;SDS011;71914;47.382;8.168;2024-02-16T04:21:59;10.05;;;6.90;;
82304;SDS011;71914;47.382;8.168;2024-02-16T04:24:25;14.13;;;8.57;;
82304;SDS011;71914;47.382;8.168;2024-02-16T04:26:51;9.40;;;6.68;;
82304;SDS011;71914;47.382;8.168;2024-02-16T04:29:17;10.70;;;5.45;;
82304;SDS011;71914;47.382;8.168;2024-02-16T04:31:42;7.70;;;5.60;;
82304;SDS011;71914;47.382;8.168;2024-02-16T04:34:10;7.45;;;4.85;;
82304;SDS011;71914;47.382;8.168;2024-02-16T04:36:36;9.90;;;5.82;;
82304;SDS011;71914;47.382;8.168;2024-02-16T04:39:03;8.50;;;5.68;;
82304;SDS011;71914;47.382;8.168;2024-02-16T04:41:28;8.60;;;6.35;;
82304;SDS011;71914;47.382;8.168;2024-02-16T04:43:54;10.70;;;6.50;;
82304;SDS011;71914;47.382;8.168;2024-02-16T04:46:20;9.77;;;5.63;;
82304;SDS011;71914;47.382;8.168;2024-02-16T04:48:46;8.88;;;5.30;;
82304;SDS011;71914;47.382;8.168;2024-02-16T04:51:12;7.68;;;5.07;;
82304;SDS011;71914;47.382;8.168;2024-02-16T04:53:37;9.88;;;4.70;;
82304;SDS011;71914;47.382;8.168;2024-02-16T04:56:05;10.02;;;5.50;;
82304;SDS011;71914;47.382;8.168;2024-02-16T04:58:31;8.48;;;5.32;;
82304;SDS011;71914;47.382;8.168;2024-02-16T05:00:56;8.15;;;4.45;;
82304;SDS011;71914;47.382;8.168;2024-02-16T05:03:22;8.13;;;4.55;;
82304;SDS011;71914;47.382;8.168;2024-02-16T05:05:48;9.73;;;5.15;;
82304;SDS011;71914;47.382;8.168;2024-02-16T05:08:14;9.93;;;5.72;;
82304;SDS011;71914;47.382;8.168;2024-02-16T05:10:39;9.75;;;5.18;;
82304;SDS011;71914;47.382;8.168;2024-02-16T05:13:06;9.20;;;4.60;;
82304;SDS011;71914;47.382;8.168;2024-02-16T05:15:32;7.25;;;4.63;;
82304;SDS011;71914;47.382;8.168;2024-02-16T05:17:58;9.38;;;5.68;;
82304;SDS011;71914;47.382;8.168;2024-02-16T05:20:24;7.22;;;5.10;;
82304;SDS011;71914;47.382;8.168;2024-02-16T05:22:50;10.07;;;5.57;;
82304;SDS011;71914;47.382;8.168;2024-02-16T05:25:16;12.18;;;7.68;;
82304;SDS011;71914;47.382;8.168;2024-02-16T05:27:45;9.07;;;5.80;;
82304;SDS011;71914;47.382;8.168;2024-02-16T05:30:14;11.25;;;6.30;;
82304;SDS011;71914;47.382;8.168;2024-02-16T05:32:40;13.27;;;6.47;;
82304;SDS011;71914;47.382;8.168;2024-02-16T05:35:07;9.43;;;6.88;;
82304;SDS011;71914;47.382;8.168;2024-02-16T05:37:37;17.20;;;7.35;;
82304;SDS011;71914;47.382;8.168;2024-02-16T05:40:06;13.00;;;7.57;;
82304;SDS011;71914;47.382;8.168;2024-02-16T05:42:53;12.07;;;6.78;;
82304;SDS011;71914;47.382;8.168;2024-02-16T05:45:20;13.27;;;7.40;;
82304;SDS011;71914;47.382;8.168;2024-02-16T05:47:48;10.18;;;6.82;;
82304;SDS011;71914;47.382;8.168;2024-02-16T05:50:14;11.45;;;7.22;;
82304;SDS011;71914;47.382;8.168;2024-02-16T05:52:40;11.48;;;7.18;;
82304;SDS011;71914;47.382;8.168;2024-02-16T05:55:07;11.52;;;6.85;;
82304;SDS011;71914;47.382;8.168;2024-02-16T05:57:33;8.73;;;6.38;;
82304;SDS011;71914;47.382;8.168;2024-02-16T05:59:58;10.65;;;6.53;;
82304;SDS011;71914;47.382;8.168;2024-02-16T06:02:25;11.77;;;6.18;;
82304;SDS011;71914;47.382;8.168;2024-02-16T06:04:52;15.52;;;8.07;;
82304;SDS011;71914;47.382;8.168;2024-02-16T06:07:18;9.90;;;6.82;;
82304;SDS011;71914;47.382;8.168;2024-02-16T06:09:43;9.35;;;6.13;;
82304;SDS011;71914;47.382;8.168;2024-02-16T06:12:09;8.80;;;6.00;;
82304;SDS011;71914;47.382;8.168;2024-02-16T06:14:35;10.20;;;6.63;;
82304;SDS011;71914;47.382;8.168;2024-02-16T06:17:01;9.50;;;5.18;;
82304;SDS011;71914;47.382;8.168;2024-02-16T06:19:29;9.30;;;6.88;;
82304;SDS011;71914;47.382;8.168;2024-02-16T06:21:55;11.13;;;8.77;;
82304;SDS011;71914;47.382;8.168;2024-02-16T06:24:21;15.93;;;6.75;;
82304;SDS011;71914;47.382;8.168;2024-02-16T06:26:47;8.93;;;7.43;;
82304;SDS011;71914;47.382;8.168;2024-02-16T06:29:13;10.95;;;6.82;;
82304;SDS011;71914;47.382;8.168;2024-02-16T06:31:39;12.48;;;7.38;;
82304;SDS011;71914;47.382;8.168;2024-02-16T06:34:04;8.30;;;6.60;;
82304;SDS011;71914;47.382;8.168;2024-02-16T06:36:31;9.25;;;6.63;;
82304;SDS011;71914;47.382;8.168;2024-02-16T06:41:22;9.75;;;4.75;;
82304;SDS011;71914;47.382;8.168;2024-02-16T06:43:48;8.18;;;6.13;;
82304;SDS011;71914;47.382;8.168;2024-02-16T06:46:14;7.53;;;5.20;;
82304;SDS011;71914;47.382;8.168;2024-02-16T06:48:40;10.30;;;5.75;;
82304;SDS011;71914;47.382;8.168;2024-02-16T06:51:05;6.80;;;5.40;;
82304;SDS011;71914;47.382;8.168;2024-02-16T06:53:33;9.77;;;5.32;;
82304;SDS011;71914;47.382;8.168;2024-02-16T06:55:59;8.43;;;5.47;;
82304;SDS011;71914;47.382;8.168;2024-02-16T06:58:24;6.97;;;5.72;;
82304;SDS011;71914;47.382;8.168;2024-02-16T07:00:50;9.00;;;6.03;;
82304;SDS011;71914;47.382;8.168;2024-02-16T07:03:15;12.07;;;6.22;;
82304;SDS011;71914;47.382;8.168;2024-02-16T07:05:41;8.48;;;5.32;;
82304;SDS011;71914;47.382;8.168;2024-02-16T07:08:07;8.30;;;6.15;;
82304;SDS011;71914;47.382;8.168;2024-02-16T07:10:34;11.10;;;7.20;;
82304;SDS011;71914;47.382;8.168;2024-02-16T07:13:00;14.10;;;7.80;;
82304;SDS011;71914;47.382;8.168;2024-02-16T07:15:25;12.40;;;8.10;;
82304;SDS011;71914;47.382;8.168;2024-02-16T07:17:52;12.70;;;7.95;;
82304;SDS011;71914;47.382;8.168;2024-02-16T07:20:17;11.05;;;6.60;;
82304;SDS011;71914;47.382;8.168;2024-02-16T07:22:43;14.13;;;8.45;;
82304;SDS011;71914;47.382;8.168;2024-02-16T07:25:11;14.27;;;7.32;;
82304;SDS011;71914;47.382;8.168;2024-02-16T07:27:39;10.77;;;6.13;;
82304;SDS011;71914;47.382;8.168;2024-02-16T07:32:30;11.43;;;4.28;;
82304;SDS011;71914;47.382;8.168;2024-02-16T07:34:56;11.85;;;6.05;;
82304;SDS011;71914;47.382;8.168;2024-02-16T07:37:21;12.13;;;6.75;;
82304;SDS011;71914;47.382;8.168;2024-02-16T07:39:47;12.00;;;6.00;;
82304;SDS011;71914;47.382;8.168;2024-02-16T07:42:13;9.18;;;6.53;;
82304;SDS011;71914;47.382;8.168;2024-02-16T07:44:40;12.23;;;7.13;;
82304;SDS011;71914;47.382;8.168;2024-02-16T07:47:05;12.80;;;7.18;;
82304;SDS011;71914;47.382;8.168;2024-02-16T07:49:31;13.52;;;6.68;;
82304;SDS011;71914;47.382;8.168;2024-02-16T07:51:57;9.82;;;6.28;;
82304;SDS011;71914;47.382;8.168;2024-02-16T07:54:25;9.32;;;5.50;;
82304;SDS011;71914;47.382;8.168;2024-02-16T07:56:50;13.65;;;8.93;;
82304;SDS011;71914;47.382;8.168;2024-02-16T07:59:16;11.05;;;7.25;;
82304;SDS011;71914;47.382;8.168;2024-02-16T08:01:45;9.98;;;6.47;;
82304;SDS011;71914;47.382;8.168;2024-02-16T08:06:36;10.05;;;6.53;;
82304;SDS011;71914;47.382;8.168;2024-02-16T08:09:02;12.23;;;7.53;;
82304;SDS011;71914;47.382;8.168;2024-02-16T08:11:29;13.02;;;6.57;;
82304;SDS011;71914;47.382;8.168;2024-02-16T08:13:55;11.13;;;6.25;;
82304;SDS011;71914;47.382;8.168;2024-02-16T08:16:25;10.70;;;6.75;;
82304;SDS011;71914;47.382;8.168;2024-02-16T08:18:52;10.57;;;5.95;;
82304;SDS011;71914;47.382;8.168;2024-02-16T08:23:43;10.48;;;7.18;;
82304;SDS011;71914;47.382;8.168;2024-02-16T08:26:09;9.75;;;6.47;;
82304;SDS011;71914;47.382;8.168;2024-02-16T08:28:35;11.05;;;7.05;;
82304;SDS011;71914;47.382;8.168;2024-02-16T08:31:00;7.93;;;5.00;;
82304;SDS011;71914;47.382;8.168;2024-02-16T08:33:26;12.18;;;6.68;;
82304;SDS011;71914;47.382;8.168;2024-02-16T08:35:53;9.52;;;6.18;;
82304;SDS011;71914;47.382;8.168;2024-02-16T08:40:44;10.80;;;5.65;;
82304;SDS011;71914;47.382;8.168;2024-02-16T08:43:09;13.85;;;7.22;;
82304;SDS011;71914;47.382;8.168;2024-02-16T08:45:35;12.60;;;7.45;;
82304;SDS011;71914;47.382;8.168;2024-02-16T08:48:01;14.00;;;7.78;;
82304;SDS011;71914;47.382;8.168;2024-02-16T08:50:29;16.40;;;6.85;;
82304;SDS011;71914;47.382;8.168;2024-02-16T08:52:56;10.05;;;6.65;;
82304;SDS011;71914;47.382;8.168;2024-02-16T09:00:13;13.18;;;7.75;;
82304;SDS011;71914;47.382;8.168;2024-02-16T09:02:41;9.48;;;6.95;;
82304;SDS011;71914;47.382;8.168;2024-02-16T09:05:07;10.73;;;6.65;;
82304;SDS011;71914;47.382;8.168;2024-02-16T09:07:34;12.13;;;6.90;;
82304;SDS011;71914;47.382;8.168;2024-02-16T09:10:01;11.32;;;7.38;;
82304;SDS011;71914;47.382;8.168;2024-02-16T09:12:28;16.90;;;7.60;;
82304;SDS011;71914;47.382;8.168;2024-02-16T09:14:53;10.27;;;7.28;;
82304;SDS011;71914;47.382;8.168;2024-02-16T09:17:19;11.93;;;6.63;;
82304;SDS011;71914;47.382;8.168;2024-02-16T09:19:45;13.13;;;6.35;;
82304;SDS011;71914;47.382;8.168;2024-02-16T09:22:11;14.95;;;7.97;;
82304;SDS011;71914;47.382;8.168;2024-02-16T09:24:37;14.10;;;6.93;;
82304;SDS011;71914;47.382;8.168;2024-02-16T09:27:04;15.18;;;7.50;;
82304;SDS011;71914;47.382;8.168;2024-02-16T09:29:30;13.45;;;7.03;;
82304;SDS011;71914;47.382;8.168;2024-02-16T09:31:55;12.18;;;5.63;;
82304;SDS011;71914;47.382;8.168;2024-02-16T09:34:21;9.40;;;6.10;;
82304;SDS011;71914;47.382;8.168;2024-02-16T09:36:47;10.80;;;5.90;;
82304;SDS011;71914;47.382;8.168;2024-02-16T09:39:12;13.13;;;5.35;;
82304;SDS011;71914;47.382;8.168;2024-02-16T09:41:40;9.82;;;6.47;;
82304;SDS011;71914;47.382;8.168;2024-02-16T09:44:09;10.75;;;7.03;;
82304;SDS011;71914;47.382;8.168;2024-02-16T09:46:35;11.52;;;6.28;;
82304;SDS011;71914;47.382;8.168;2024-02-16T09:49:01;12.98;;;6.53;;
82304;SDS011;71914;47.382;8.168;2024-02-16T09:51:28;10.27;;;5.65;;
82304;SDS011;71914;47.382;8.168;2024-02-16T09:53:54;11.38;;;6.45;;
82304;SDS011;71914;47.382;8.168;2024-02-16T09:56:22;13.52;;;6.28;;
82304;SDS011;71914;47.382;8.168;2024-02-16T09:58:49;7.95;;;5.38;;
82304;SDS011;71914;47.382;8.168;2024-02-16T10:01:18;11.13;;;6.20;;
82304;SDS011;71914;47.382;8.168;2024-02-16T10:03:48;7.10;;;5.70;;
82304;SDS011;71914;47.382;8.168;2024-02-16T10:06:15;8.52;;;5.65;;
82304;SDS011;71914;47.382;8.168;2024-02-16T10:08:48;8.35;;;5.80;;
82304;SDS011;71914;47.382;8.168;2024-02-16T10:11:17;10.23;;;5.82;;
82304;SDS011;71914;47.382;8.168;2024-02-16T10:13:55;7.10;;;5.18;;
82304;SDS011;71914;47.382;8.168;2024-02-16T10:16:23;9.43;;;5.47;;
82304;SDS011;71914;47.382;8.168;2024-02-16T10:18:49;8.43;;;5.80;;
82304;SDS011;71914;47.382;8.168;2024-02-16T10:21:23;9.25;;;5.15;;
82304;SDS011;71914;47.382;8.168;2024-02-16T10:23:55;9.13;;;5.32;;
82304;SDS011;71914;47.382;8.168;2024-02-16T10:26:22;7.25;;;5.10;;
82304;SDS011;71914;47.382;8.168;2024-02-16T10:28:48;13.45;;;5.63;;
82304;SDS011;71914;47.382;8.168;2024-02-16T10:31:15;6.80;;;4.95;;
82304;SDS011;71914;47.382;8.168;2024-02-16T10:33:42;8.57;;;5.45;;
82304;SDS011;71914;47.382;8.168;2024-02-16T10:36:08;8.02;;;3.90;;
82304;SDS011;71914;47.382;8.168;2024-02-16T10:38:35;7.68;;;4.82;;
82304;SDS011;71914;47.382;8.168;2024-02-16T10:43:28;10.02;;;4.85;;
82304;SDS011;71914;47.382;8.168;2024-02-16T10:45:55;8.13;;;4.63;;
82304;SDS011;71914;47.382;8.168;2024-02-16T10:50:48;11.75;;;4.95;;
82304;SDS011;71914;47.382;8.168;2024-02-16T10:53:18;9.35;;;5.38;;
82304;SDS011;71914;47.382;8.168;2024-02-16T10:55:48;8.93;;;4.90;;
82304;SDS011;71914;47.382;8.168;2024-02-16T10:58:14;8.05;;;5.32;;
82304;SDS011;71914;47.382;8.168;2024-02-16T11:00:49;7.82;;;5.03;;
82304;SDS011;71914;47.382;8.168;2024-02-16T11:03:16;8.57;;;5.60;;
82304;SDS011;71914;47.382;8.168;2024-02-16T11:05:42;8.38;;;5.80;;
82304;SDS011;71914;47.382;8.168;2024-02-16T11:08:14;8.35;;;5.40;;
82304;SDS011;71914;47.382;8.168;2024-02-16T11:10:41;8.20;;;5.18;;
82304;SDS011;71914;47.382;8.168;2024-02-16T11:13:06;7.30;;;4.82;;
82304;SDS011;71914;47.382;8.168;2024-02-16T11:15:35;6.80;;;4.78;;
82304;SDS011;71914;47.382;8.168;2024-02-16T11:18:02;7.60;;;5.00;;
82304;SDS011;71914;47.382;8.168;2024-02-16T11:20:35;6.70;;;4.40;;
82304;SDS011;71914;47.382;8.168;2024-02-16T11:23:06;11.95;;;5.32;;
82304;SDS011;71914;47.382;8.168;2024-02-16T11:25:35;8.15;;;5.45;;
82304;SDS011;71914;47.382;8.168;2024-02-16T11:28:01;9.50;;;4.78;;
82304;SDS011;71914;47.382;8.168;2024-02-16T11:30:32;7.18;;;4.90;;
82304;SDS011;71914;47.382;8.168;2024-02-16T11:32:59;6.43;;;4.32;;
82304;SDS011;71914;47.382;8.168;2024-02-16T11:35:25;7.63;;;5.13;;
82304;SDS011;71914;47.382;8.168;2024-02-16T11:37:50;6.22;;;4.68;;
82304;SDS011;71914;47.382;8.168;2024-02-16T11:40:16;9.25;;;5.05;;
82304;SDS011;71914;47.382;8.168;2024-02-16T11:42:43;6.75;;;4.82;;
82304;SDS011;71914;47.382;8.168;2024-02-16T11:45:11;7.32;;;4.97;;
82304;SDS011;71914;47.382;8.168;2024-02-16T11:47:38;5.35;;;3.95;;
82304;SDS011;71914;47.382;8.168;2024-02-16T11:50:04;6.38;;;4.50;;
82304;SDS011;71914;47.382;8.168;2024-02-16T11:52:31;6.57;;;5.07;;
82304;SDS011;71914;47.382;8.168;2024-02-16T11:54:57;7.13;;;4.43;;
82304;SDS011;71914;47.382;8.168;2024-02-16T11:57:25;7.25;;;4.60;;
82304;SDS011;71914;47.382;8.168;2024-02-16T11:59:53;7.35;;;5.18;;
82304;SDS011;71914;47.382;8.168;2024-02-16T12:02:19;7.28;;;4.35;;
82304;SDS011;71914;47.382;8.168;2024-02-16T12:04:56;6.03;;;4.18;;
82304;SDS011;71914;47.382;8.168;2024-02-16T12:07:24;6.28;;;3.38;;
82304;SDS011;71914;47.382;8.168;2024-02-16T12:09:54;5.85;;;3.55;;
82304;SDS011;71914;47.382;8.168;2024-02-16T12:12:21;5.35;;;3.67;;
82304;SDS011;71914;47.382;8.168;2024-02-16T12:14:47;6.07;;;3.45;;
82304;SDS011;71914;47.382;8.168;2024-02-16T12:17:14;6.78;;;4.00;;
82304;SDS011;71914;47.382;8.168;2024-02-16T12:19:43;5.28;;;3.50;;
82304;SDS011;71914;47.382;8.168;2024-02-16T12:22:08;5.85;;;3.63;;
82304;SDS011;71914;47.382;8.168;2024-02-16T12:24:34;6.30;;;3.50;;
82304;SDS011;71914;47.382;8.168;2024-02-16T12:27:00;6.78;;;4.22;;
82304;SDS011;71914;47.382;8.168;2024-02-16T12:29:25;5.40;;;3.65;;
82304;SDS011;71914;47.382;8.168;2024-02-16T12:31:51;6.88;;;3.55;;
82304;SDS011;71914;47.382;8.168;2024-02-16T12:34:18;4.78;;;3.03;;
82304;SDS011;71914;47.382;8.168;2024-02-16T12:36:44;5.03;;;3.70;;
82304;SDS011;71914;47.382;8.168;2024-02-16T12:39:10;7.05;;;2.78;;
82304;SDS011;71914;47.382;8.168;2024-02-16T12:41:37;4.85;;;2.85;;
82304;SDS011;71914;47.382;8.168;2024-02-16T12:44:03;4.50;;;2.92;;
82304;SDS011;71914;47.382;8.168;2024-02-16T12:46:30;6.18;;;2.92;;
82304;SDS011;71914;47.382;8.168;2024-02-16T12:48:55;7.03;;;3.60;;
82304;SDS011;71914;47.382;8.168;2024-02-16T12:51:22;7.30;;;3.70;;
82304;SDS011;71914;47.382;8.168;2024-02-16T12:53:48;7.25;;;3.60;;
82304;SDS011;71914;47.382;8.168;2024-02-16T12:56:14;4.82;;;3.28;;
82304;SDS011;71914;47.382;8.168;2024-02-16T12:58:39;9.05;;;3.53;;
82304;SDS011;71914;47.382;8.168;2024-02-16T13:01:05;5.28;;;3.28;;
82304;SDS011;71914;47.382;8.168;2024-02-16T13:03:32;4.35;;;2.67;;
82304;SDS011;71914;47.382;8.168;2024-02-16T13:05:58;12.48;;;3.00;;
82304;SDS011;71914;47.382;8.168;2024-02-16T13:08:25;8.35;;;3.15;;
82304;SDS011;71914;47.382;8.168;2024-02-16T13:10:51;5.65;;;3.50;;
82304;SDS011;71914;47.382;8.168;2024-02-16T13:13:16;6.38;;;3.00;;
82304;SDS011;71914;47.382;8.168;2024-02-16T13:15:42;6.15;;;3.17;;
82304;SDS011;71914;47.382;8.168;2024-02-16T13:18:08;3.50;;;2.60;;
82304;SDS011;71914;47.382;8.168;2024-02-16T13:20:33;6.55;;;4.22;;
82304;SDS011;71914;47.382;8.168;2024-02-16T13:23:00;6.65;;;2.70;;
82304;SDS011;71914;47.382;8.168;2024-02-16T13:25:27;7.30;;;3.28;;
82304;SDS011;71914;47.382;8.168;2024-02-16T13:27:53;5.45;;;2.83;;
82304;SDS011;71914;47.382;8.168;2024-02-16T13:30:18;7.22;;;3.33;;
82304;SDS011;71914;47.382;8.168;2024-02-16T13:32:44;7.55;;;3.60;;
82304;SDS011;71914;47.382;8.168;2024-02-16T13:35:10;5.25;;;3.47;;
82304;SDS011;71914;47.382;8.168;2024-02-16T13:37:35;7.50;;;3.47;;
82304;SDS011;71914;47.382;8.168;2024-02-16T13:42:33;6.68;;;3.63;;
82304;SDS011;71914;47.382;8.168;2024-02-16T13:44:59;4.57;;;3.13;;
82304;SDS011;71914;47.382;8.168;2024-02-16T13:47:24;5.53;;;3.33;;
82304;SDS011;71914;47.382;8.168;2024-02-16T13:49:50;4.78;;;2.85;;
82304;SDS011;71914;47.382;8.168;2024-02-16T13:52:17;5.07;;;3.58;;
82304;SDS011;71914;47.382;8.168;2024-02-16T13:54:43;4.13;;;3.13;;
82304;SDS011;71914;47.382;8.168;2024-02-16T13:57:09;6.97;;;3.35;;
82304;SDS011;71914;47.382;8.168;2024-02-16T13:59:36;7.55;;;3.80;;
82304;SDS011;71914;47.382;8.168;2024-02-16T14:02:01;4.90;;;3.10;;
82304;SDS011;71914;47.382;8.168;2024-02-16T14:04:27;6.97;;;4.00;;
82304;SDS011;71914;47.382;8.168;2024-02-16T14:06:54;5.10;;;3.85;;
82304;SDS011;71914;47.382;8.168;2024-02-16T14:09:19;5.57;;;3.63;;
82304;SDS011;71914;47.382;8.168;2024-02-16T14:11:45;7.38;;;5.30;;
82304;SDS011;71914;47.382;8.168;2024-02-16T14:14:11;5.93;;;4.53;;
82304;SDS011;71914;47.382;8.168;2024-02-16T14:16:38;5.30;;;3.50;;
82304;SDS011;71914;47.382;8.168;2024-02-16T14:19:03;8.05;;;5.25;;
82304;SDS011;71914;47.382;8.168;2024-02-16T14:21:29;5.95;;;3.83;;
82304;SDS011;71914;47.382;8.168;2024-02-16T14:23:55;3.85;;;2.58;;
82304;SDS011;71914;47.382;8.168;2024-02-16T14:26:20;6.45;;;4.30;;
82304;SDS011;71914;47.382;8.168;2024-02-16T14:28:46;5.43;;;3.20;;
82304;SDS011;71914;47.382;8.168;2024-02-16T14:31:12;6.15;;;3.58;;
82304;SDS011;71914;47.382;8.168;2024-02-16T14:33:43;4.25;;;3.10;;
82304;SDS011;71914;47.382;8.168;2024-02-16T14:36:08;6.50;;;3.50;;
82304;SDS011;71914;47.382;8.168;2024-02-16T14:38:34;4.22;;;3.33;;
82304;SDS011;71914;47.382;8.168;2024-02-16T14:41:00;5.68;;;2.95;;
82304;SDS011;71914;47.382;8.168;2024-02-16T14:43:28;3.72;;;2.25;;
82304;SDS011;71914;47.382;8.168;2024-02-16T14:45:54;6.03;;;2.72;;
82304;SDS011;71914;47.382;8.168;2024-02-16T14:48:22;5.18;;;2.92;;
82304;SDS011;71914;47.382;8.168;2024-02-16T14:50:49;4.38;;;2.53;;
82304;SDS011;71914;47.382;8.168;2024-02-16T14:53:14;6.57;;;3.00;;
82304;SDS011;71914;47.382;8.168;2024-02-16T14:55:42;5.63;;;2.85;;
82304;SDS011;71914;47.382;8.168;2024-02-16T14:58:07;5.07;;;2.42;;
82304;SDS011;71914;47.382;8.168;2024-02-16T15:00:33;3.88;;;2.78;;
82304;SDS011;71914;47.382;8.168;2024-02-16T15:03:00;4.32;;;2.60;;
82304;SDS011;71914;47.382;8.168;2024-02-16T15:05:26;4.45;;;2.25;;
82304;SDS011;71914;47.382;8.168;2024-02-16T15:07:53;4.35;;;2.90;;
82304;SDS011;71914;47.382;8.168;2024-02-16T15:10:19;5.35;;;2.70;;
82304;SDS011;71914;47.382;8.168;2024-02-16T15:12:44;4.05;;;2.90;;
82304;SDS011;71914;47.382;8.168;2024-02-16T15:15:10;7.03;;;3.00;;
82304;SDS011;71914;47.382;8.168;2024-02-16T15:17:37;5.72;;;4.13;;
82304;SDS011;71914;47.382;8.168;2024-02-16T15:20:03;5.55;;;3.10;;
82304;SDS011;71914;47.382;8.168;2024-02-16T15:22:30;4.75;;;2.78;;